Time;durP1;ratioP1;P1;durP2;ratioP2;P2;SDS_P1;SDS_P2;PMS_P1;PMS_P2;Temp;Humidity;BMP_temperature;BMP_pressure;BME280_temperature;BME280_humidity;BME280_pressure;Samples;Min_cycle;Max_cycle;Signal;HPM_P1;HPM_P2
2022/10/27 00:00:16;;;;;;;;;;;;;;;12.73;80.43;101813.41;5063746;28;19975;-83
2022/10/27 00:02:41;;;;;;;;;;;;;;;12.64;80.59;101811.56;5063101;28;19928;-84
2022/10/27 00:05:07;;;;;;;;;;;;;;;12.74;80.40;101822.38;5044052;28;19924;-85
2022/10/27 00:07:34;;;;;;;;;;;;;;;12.84;79.51;101815.91;5030182;28;19959;-85
2022/10/27 00:09:59;;;;;;;;;;;;;;;12.73;80.26;101820.66;5061137;28;19929;-84
2022/10/27 00:12:25;;;;;;;;;;;;;;;12.86;79.81;101822.03;5064635;28;19948;-85
2022/10/27 00:14:50;;;;;;;;;;;;;;;12.89;79.64;101818.19;5039057;28;20392;-85
2022/10/27 00:17:18;;;;;;;;;;;;;;;12.94;79.30;101817.72;5046551;28;19924;-84
2022/10/27 00:19:45;;;;;;;;;;;;;;;12.86;79.42;101813.09;5061451;28;19920;-83
2022/10/27 00:22:10;;;;;;;;;;;;;;;12.91;79.31;101813.47;5062500;28;20034;-84
2022/10/27 00:24:35;;;;;;;;;;;;;;;12.93;79.16;101813.34;5046477;28;20015;-85
2022/10/27 00:27:01;;;;;;;;;;;;;;;12.98;78.98;101813.75;5058914;28;19921;-85
2022/10/27 00:29:26;;;;;;;;;;;;;;;13.07;78.47;101813.69;5048234;28;20014;-85
2022/10/27 00:31:52;;;;;;;;;;;;;;;12.91;78.91;101812.63;5057153;28;20050;-84
2022/10/27 00:34:17;;;;;;;;;;;;;;;13.02;78.71;101809.75;5041761;28;20396;-85
2022/10/27 00:36:43;;;;;;;;;;;;;;;12.90;79.24;101811.78;5059804;28;19924;-85
2022/10/27 00:39:08;;;;;;;;;;;;;;;12.81;79.24;101810.81;5028755;28;20308;-85
2022/10/27 00:41:34;;;;;;;;;;;;;;;12.67;79.48;101793.25;5029461;28;20389;-85
2022/10/27 00:44:01;;;;;;;;;;;;;;;12.80;79.42;101801.00;5044796;28;19974;-85
2022/10/27 00:46:38;;;;;;;;;;;;;;;12.82;79.03;101798.19;5027405;28;19928;-86
2022/10/27 00:49:10;;;;;;;;;;;;;;;12.88;78.56;101806.53;5043159;28;20377;-86
2022/10/27 00:51:39;;;;;;;;;;;;;;;12.88;78.53;101803.84;5036942;28;19921;-85
2022/10/27 00:54:05;;;;;;;;;;;;;;;12.87;78.58;101801.28;5065117;28;19929;-86
2022/10/27 00:56:30;;;;;;;;;;;;;;;12.84;78.75;101807.81;5065262;28;19947;-84
2022/10/27 00:58:55;;;;;;;;;;;;;;;12.89;78.48;101802.81;5056027;28;19990;-84
2022/10/27 01:01:22;;;;;;;;;;;;;;;12.81;78.85;101808.13;5040661;28;19925;-84
2022/10/27 01:03:47;;;;;;;;;;;;;;;12.72;79.37;101809.00;5041812;28;20369;-86
2022/10/27 01:06:13;;;;;;;;;;;;;;;12.82;79.00;101811.66;5036848;28;19920;-84
2022/10/27 01:08:38;;;;;;;;;;;;;;;12.81;79.13;101797.34;5052218;28;19920;-88
2022/10/27 01:11:04;;;;;;;;;;;;;;;12.91;78.48;101808.09;5060721;28;20414;-85
2022/10/27 01:13:29;;;;;;;;;;;;;;;12.97;78.17;101801.22;5053949;28;20354;-85
2022/10/27 01:15:55;;;;;;;;;;;;;;;12.87;78.42;101812.91;5052479;28;19986;-87
2022/10/27 01:18:21;;;;;;;;;;;;;;;12.91;78.39;101808.09;5066128;28;20019;-85
2022/10/27 01:21:04;;;;;;;;;;;;;;;12.88;78.70;101816.50;5045657;28;20031;-84
2022/10/27 01:23:48;;;;;;;;;;;;;;;12.88;78.56;101819.19;5041169;28;19961;-89
2022/10/27 01:26:13;;;;;;;;;;;;;;;12.93;78.49;101813.34;5029442;28;19920;-84
2022/10/27 01:28:57;;;;;;;;;;;;;;;12.96;77.95;101815.75;5067557;28;19923;-84
2022/10/27 01:31:23;;;;;;;;;;;;;;;12.87;77.92;101818.31;5056547;28;20316;-85
2022/10/27 01:33:51;;;;;;;;;;;;;;;12.96;77.35;101818.44;5048780;28;19917;-86
2022/10/27 01:36:23;;;;;;;;;;;;;;;12.82;77.87;101820.63;5061666;28;19920;-85
2022/10/27 01:38:48;;;;;;;;;;;;;;;12.64;78.93;101822.38;5033537;28;19921;-84
2022/10/27 01:41:21;;;;;;;;;;;;;;;12.65;79.03;101822.22;5060816;28;19928;-84
2022/10/27 01:43:47;;;;;;;;;;;;;;;12.61;78.87;101828.91;5050863;28;19967;-85
2022/10/27 01:46:12;;;;;;;;;;;;;;;12.58;78.93;101831.06;5038971;28;19917;-85
2022/10/27 01:48:38;;;;;;;;;;;;;;;12.69;78.43;101830.91;5056484;28;20312;-86
2022/10/27 01:51:03;;;;;;;;;;;;;;;12.67;78.55;101832.88;5051804;28;20406;-85
2022/10/27 01:53:31;;;;;;;;;;;;;;;12.60;78.46;101826.38;5055309;28;19921;-86
2022/10/27 01:56:08;;;;;;;;;;;;;;;12.77;77.88;101835.56;5035452;28;19939;-86
2022/10/27 01:58:36;;;;;;;;;;;;;;;12.71;78.17;101830.72;5055040;28;20043;-87
2022/10/27 02:01:13;;;;;;;;;;;;;;;12.77;78.36;101835.56;5060488;28;19921;-87
2022/10/27 02:03:42;;;;;;;;;;;;;;;12.75;78.11;101835.69;5047387;28;19927;-86
2022/10/27 02:06:16;;;;;;;;;;;;;;;12.85;77.86;101836.53;5047864;28;19929;-85
2022/10/27 02:08:46;;;;;;;;;;;;;;;12.94;77.51;101845.56;5046640;28;20027;-85
2022/10/27 02:11:11;;;;;;;;;;;;;;;12.94;77.17;101839.31;5044815;28;20340;-84
2022/10/27 02:13:38;;;;;;;;;;;;;;;12.97;76.97;101842.59;5045147;28;19923;-85
2022/10/27 02:16:21;;;;;;;;;;;;;;;13.03;76.99;101841.13;5043053;28;20077;-86
2022/10/27 02:19:24;;;;;;;;;;;;;;;12.98;76.87;101838.88;5051459;28;19916;-85
2022/10/27 02:21:50;;;;;;;;;;;;;;;12.95;76.59;101846.44;5059887;28;20042;-86
2022/10/27 02:24:15;;;;;;;;;;;;;;;13.02;76.22;101847.56;5043750;28;20027;-84
2022/10/27 02:26:59;;;;;;;;;;;;;;;13.00;76.34;101850.38;5061778;28;20053;-85
2022/10/27 02:29:39;;;;;;;;;;;;;;;12.90;76.69;101849.59;5069794;28;19947;-87
2022/10/27 02:32:05;;;;;;;;;;;;;;;12.82;77.26;101853.00;5048588;28;19927;-85
2022/10/27 02:34:31;;;;;;;;;;;;;;;12.77;77.54;101852.59;5050827;28;20022;-85
2022/10/27 02:36:57;;;;;;;;;;;;;;;12.85;77.17;101852.72;5047884;28;20374;-85
2022/10/27 02:39:22;;;;;;;;;;;;;;;12.81;77.42;101858.56;5068598;28;19999;-84
2022/10/27 02:41:48;;;;;;;;;;;;;;;12.71;78.07;101853.16;5045510;28;19924;-85
2022/10/27 02:44:13;;;;;;;;;;;;;;;12.63;78.59;101864.69;5034588;28;20118;-85
2022/10/27 02:46:38;;;;;;;;;;;;;;;12.56;79.06;101862.72;5064934;28;19920;-85
2022/10/27 02:49:04;;;;;;;;;;;;;;;12.58;79.01;101863.44;5043502;28;19958;-85
2022/10/27 02:51:29;;;;;;;;;;;;;;;12.58;79.03;101871.53;5068758;28;19920;-85
2022/10/27 02:53:55;;;;;;;;;;;;;;;12.60;78.97;101869.53;5068581;28;20319;-86
2022/10/27 02:56:20;;;;;;;;;;;;;;;12.53;79.19;101873.81;5066844;28;19928;-87
2022/10/27 02:58:45;;;;;;;;;;;;;;;12.53;79.37;101873.81;5068724;28;19920;-85
2022/10/27 03:01:11;;;;;;;;;;;;;;;12.57;79.21;101869.81;5061931;28;19927;-85
2022/10/27 03:03:36;;;;;;;;;;;;;;;12.42;80.11;101883.75;5068196;28;19924;-84
2022/10/27 03:06:01;;;;;;;;;;;;;;;12.58;79.02;101875.06;5062753;28;20373;-84
2022/10/27 03:08:27;;;;;;;;;;;;;;;12.65;78.89;101873.50;5048972;28;19971;-88
2022/10/27 03:10:52;;;;;;;;;;;;;;;12.66;78.93;101880.56;5042508;28;19929;-85
2022/10/27 03:13:17;;;;;;;;;;;;;;;12.57;79.35;101877.91;5069399;28;19924;-85
2022/10/27 03:15:43;;;;;;;;;;;;;;;12.51;79.69;101881.19;5057351;28;20424;-85
2022/10/27 03:18:09;;;;;;;;;;;;;;;12.41;80.14;101875.81;5062536;28;20392;-85
2022/10/27 03:20:34;;;;;;;;;;;;;;;12.26;80.85;101878.06;5056395;28;19921;-85
2022/10/27 03:22:59;;;;;;;;;;;;;;;12.39;80.54;101877.81;5062476;28;19979;-85
2022/10/27 03:25:25;;;;;;;;;;;;;;;12.37;80.63;101877.94;5040350;28;19928;-89
2022/10/27 03:27:51;;;;;;;;;;;;;;;12.38;80.46;101882.31;5054384;28;20463;-86
2022/10/27 03:30:17;;;;;;;;;;;;;;;12.30;80.98;101889.44;5050822;28;19924;-88
2022/10/27 03:32:46;;;;;;;;;;;;;;;12.34;80.72;101886.31;5067061;28;20420;-87
2022/10/27 03:35:11;;;;;;;;;;;;;;;12.41;80.40;101887.44;5056395;28;20036;-87
2022/10/27 03:37:37;;;;;;;;;;;;;;;12.42;80.08;101891.84;5061100;28;20007;-86
2022/10/27 03:40:02;;;;;;;;;;;;;;;12.35;80.51;101888.00;5061305;28;19931;-89
2022/10/27 03:42:28;;;;;;;;;;;;;;;12.42;80.00;101891.84;5052789;28;20261;-86
2022/10/27 03:44:53;;;;;;;;;;;;;;;12.45;79.73;101891.56;5069318;28;19999;-85
2022/10/27 03:47:20;;;;;;;;;;;;;;;12.51;79.78;101894.69;5045721;28;19930;-85
2022/10/27 03:49:45;;;;;;;;;;;;;;;12.50;79.18;101891.09;5063525;28;19925;-83
2022/10/27 03:52:11;;;;;;;;;;;;;;;12.52;79.19;101893.69;5056644;28;19924;-84
2022/10/27 03:54:36;;;;;;;;;;;;;;;12.65;78.59;101895.09;5076469;28;19924;-86
2022/10/27 03:57:01;;;;;;;;;;;;;;;12.65;78.38;101899.63;5066812;28;19940;-87
2022/10/27 03:59:27;;;;;;;;;;;;;;;12.66;78.20;101899.47;5050406;28;19993;-88
2022/10/27 04:01:52;;;;;;;;;;;;;;;12.63;78.46;101897.06;5042398;28;20359;-87
2022/10/27 04:04:17;;;;;;;;;;;;;;;12.71;77.88;101903.59;5066603;28;20352;-85
2022/10/27 04:06:43;;;;;;;;;;;;;;;12.84;77.20;101907.69;5045620;28;19925;-86
2022/10/27 04:09:08;;;;;;;;;;;;;;;12.82;77.19;101917.75;5063390;28;19921;-85
2022/10/27 04:11:34;;;;;;;;;;;;;;;12.93;76.52;101918.63;5062662;28;20012;-84
2022/10/27 04:13:59;;;;;;;;;;;;;;;12.88;76.54;101932.53;5033729;28;20122;-84
2022/10/27 04:16:24;;;;;;;;;;;;;;;12.85;76.73;101933.69;5044559;28;19924;-83
2022/10/27 04:18:50;;;;;;;;;;;;;;;12.91;76.78;101932.25;5055228;28;19928;-84
2022/10/27 04:21:16;;;;;;;;;;;;;;;12.89;76.80;101935.09;5060799;28;20661;-84
2022/10/27 04:23:41;;;;;;;;;;;;;;;12.89;77.19;101935.09;5038441;28;19924;-84
2022/10/27 04:26:06;;;;;;;;;;;;;;;12.91;77.31;101942.19;5051893;28;19921;-87
2022/10/27 04:28:32;;;;;;;;;;;;;;;13.02;76.50;101940.19;5063297;28;20049;-85
2022/10/27 04:30:57;;;;;;;;;;;;;;;13.05;76.46;101939.03;5058342;28;19992;-84
2022/10/27 04:33:22;;;;;;;;;;;;;;;13.13;76.04;101933.75;5053959;28;19960;-84
2022/10/27 04:35:48;;;;;;;;;;;;;;;13.19;75.75;101940.41;5050149;28;19978;-84
2022/10/27 04:38:13;;;;;;;;;;;;;;;13.22;75.21;101940.13;5054457;28;19924;-85
2022/10/27 04:40:38;;;;;;;;;;;;;;;13.24;75.32;101948.94;5056301;28;19921;-85
2022/10/27 04:43:04;;;;;;;;;;;;;;;13.32;74.96;101942.81;5041437;28;19928;-85
2022/10/27 04:45:29;;;;;;;;;;;;;;;13.35;74.92;101950.66;5047961;28;19924;-86
2022/10/27 04:47:54;;;;;;;;;;;;;;;13.26;75.28;101955.88;5055892;28;19948;-86
2022/10/27 04:50:21;;;;;;;;;;;;;;;13.38;74.70;101956.59;5058470;28;20390;-85
2022/10/27 04:52:57;;;;;;;;;;;;;;;13.42;74.58;101962.56;5037767;28;19928;-85
2022/10/27 04:55:23;;;;;;;;;;;;;;;13.34;74.78;101962.44;5036752;28;20335;-85
2022/10/27 04:57:48;;;;;;;;;;;;;;;13.31;74.76;101958.19;5064178;28;19974;-85
2022/10/27 05:00:14;;;;;;;;;;;;;;;13.46;74.04;101964.81;5072750;28;19924;-83
2022/10/27 05:02:39;;;;;;;;;;;;;;;13.53;73.87;101965.03;5073151;28;19921;-86
2022/10/27 05:05:04;;;;;;;;;;;;;;;13.55;73.84;101970.31;5068546;28;19916;-86
2022/10/27 05:07:30;;;;;;;;;;;;;;;13.66;73.63;101967.44;5081515;28;19931;-85
2022/10/27 05:09:55;;;;;;;;;;;;;;;13.83;73.17;101982.00;5081889;28;19924;-86
2022/10/27 05:12:20;;;;;;;;;;;;;;;13.97;72.49;101981.47;5076646;28;20022;-85
2022/10/27 05:14:46;;;;;;;;;;;;;;;14.10;71.85;101978.44;5081141;28;20015;-84
2022/10/27 05:17:11;;;;;;;;;;;;;;;14.28;71.26;101983.84;5078705;28;19920;-84
2022/10/27 05:19:37;;;;;;;;;;;;;;;14.45;70.85;101993.84;5085301;28;19916;-84
2022/10/27 05:22:02;;;;;;;;;;;;;;;14.64;70.58;101986.63;5063458;28;20264;-85
2022/10/27 05:24:28;;;;;;;;;;;;;;;14.78;70.07;101999.59;5084150;28;19936;-85
2022/10/27 05:26:53;;;;;;;;;;;;;;;14.93;68.80;102003.44;5078374;28;20382;-85
2022/10/27 05:29:20;;;;;;;;;;;;;;;14.97;68.76;102004.81;5083883;28;19978;-87
2022/10/27 05:31:45;;;;;;;;;;;;;;;15.76;66.63;102007.56;5083030;28;19942;-87
2022/10/27 05:34:10;;;;;;;;;;;;;;;17.40;61.84;102003.22;5081937;28;20360;-85
2022/10/27 05:36:37;;;;;;;;;;;;;;;18.70;58.59;102006.34;5060152;28;19924;-87
2022/10/27 05:39:03;;;;;;;;;;;;;;;19.94;53.57;102006.84;5067485;28;20029;-89
2022/10/27 05:41:29;;;;;;;;;;;;;;;20.90;49.57;102005.81;5074070;28;19928;-90
2022/10/27 05:43:54;;;;;;;;;;;;;;;21.76;47.24;102011.06;5079140;28;19939;-89
2022/10/27 05:46:19;;;;;;;;;;;;;;;22.77;45.41;102014.78;5083510;28;20332;-87
2022/10/27 05:48:46;;;;;;;;;;;;;;;22.87;43.18;102022.59;5072642;28;20411;-90
2022/10/27 05:51:11;;;;;;;;;;;;;;;23.78;41.39;102027.41;5083272;28;19997;-87
2022/10/27 05:53:37;;;;;;;;;;;;;;;24.80;39.25;102021.22;5072418;28;19924;-85
2022/10/27 05:56:03;;;;;;;;;;;;;;;25.77;37.07;102024.34;5079835;28;19927;-88
2022/10/27 05:58:28;;;;;;;;;;;;;;;26.45;35.57;102027.97;5074419;28;19924;-86
2022/10/27 06:00:56;;;;;;;;;;;;;;;27.22;34.26;102024.47;5085743;28;20313;-86
2022/10/27 06:03:22;;;;;;;;;;;;;;;26.19;35.19;102031.94;5085594;28;19923;-86
2022/10/27 06:05:48;;;;;;;;;;;;;;;24.56;38.05;102029.22;5063735;28;19924;-85
2022/10/27 06:08:13;;;;;;;;;;;;;;;23.78;39.34;102032.91;5087598;28;19934;-86
2022/10/27 06:10:42;;;;;;;;;;;;;;;23.11;41.07;102039.53;5082130;28;19953;-85
2022/10/27 06:13:08;;;;;;;;;;;;;;;22.66;42.28;102033.75;5077438;28;20007;-86
2022/10/27 06:15:33;;;;;;;;;;;;;;;23.35;41.23;102049.84;5075188;28;20494;-86
2022/10/27 06:17:58;;;;;;;;;;;;;;;25.20;38.16;102041.03;5083909;28;19916;-87
2022/10/27 06:20:25;;;;;;;;;;;;;;;25.60;36.25;102042.56;5078815;28;19924;-85
2022/10/27 06:22:51;;;;;;;;;;;;;;;25.39;36.80;102044.66;5090056;28;19973;-85
2022/10/27 06:25:16;;;;;;;;;;;;;;;25.02;37.51;102050.03;5074794;28;19929;-85
2022/10/27 06:27:41;;;;;;;;;;;;;;;25.81;36.21;102050.38;5074714;28;19920;-86
2022/10/27 06:30:07;;;;;;;;;;;;;;;25.54;36.58;102052.56;5074304;28;19927;-85
2022/10/27 06:32:36;;;;;;;;;;;;;;;25.63;36.82;102055.88;5074980;28;19923;-85
2022/10/27 06:35:03;;;;;;;;;;;;;;;26.15;35.94;102053.59;5090812;28;19920;-88
2022/10/27 06:37:28;;;;;;;;;;;;;;;26.47;34.52;102056.16;5079870;28;19916;-86
2022/10/27 06:39:54;;;;;;;;;;;;;;;26.51;34.03;102060.13;5081302;28;19923;-85
2022/10/27 06:42:21;;;;;;;;;;;;;;;25.53;35.29;102064.66;5074780;28;19927;-84
2022/10/27 06:44:47;;;;;;;;;;;;;;;24.67;37.25;102057.06;5079535;28;19988;-84
2022/10/27 06:47:12;;;;;;;;;;;;;;;23.75;39.07;102066.28;5085585;28;19960;-86
2022/10/27 06:49:40;;;;;;;;;;;;;;;23.31;40.04;102062.31;5074137;28;19938;-87
2022/10/27 06:52:06;;;;;;;;;;;;;;;22.00;42.09;102061.72;5086295;28;19959;-84
2022/10/27 06:54:31;;;;;;;;;;;;;;;21.59;43.39;102066.13;5077912;28;19924;-87
2022/10/27 06:56:56;;;;;;;;;;;;;;;21.60;44.05;102067.81;5083889;28;19991;-86
2022/10/27 06:59:22;;;;;;;;;;;;;;;21.40;44.18;102062.22;5089554;28;20091;-85
2022/10/27 07:01:51;;;;;;;;;;;;;;;21.01;44.96;102062.69;5083450;28;19947;-85
2022/10/27 07:04:20;;;;;;;;;;;;;;;20.27;46.90;102066.47;5089117;28;19981;-86
2022/10/27 07:06:47;;;;;;;;;;;;;;;20.32;46.76;102066.75;5079780;28;20315;-88
2022/10/27 07:09:13;;;;;;;;;;;;;;;19.89;48.02;102082.97;5086099;28;20261;-85
2022/10/27 07:11:38;;;;;;;;;;;;;;;19.68;49.10;102071.94;5083236;28;19921;-85
2022/10/27 07:14:05;;;;;;;;;;;;;;;19.67;49.34;102075.72;5087314;28;19920;-84
2022/10/27 07:16:32;;;;;;;;;;;;;;;19.87;48.34;102076.84;5077703;28;19927;-87
2022/10/27 07:18:57;;;;;;;;;;;;;;;20.01;48.08;102081.47;5087713;28;20017;-85
2022/10/27 07:21:23;;;;;;;;;;;;;;;21.07;45.97;102070.94;5075549;28;19964;-86
2022/10/27 07:23:49;;;;;;;;;;;;;;;21.20;45.19;102075.69;5077185;28;19951;-84
2022/10/27 07:26:16;;;;;;;;;;;;;;;21.21;45.19;102085.59;5071620;28;20424;-84
2022/10/27 07:28:44;;;;;;;;;;;;;;;21.25;44.80;102078.66;5081290;28;20293;-85
2022/10/27 07:31:11;;;;;;;;;;;;;;;21.40;44.68;102077.75;5076465;28;21499;-85
2022/10/27 07:33:36;;;;;;;;;;;;;;;21.61;43.88;102088.69;5079613;28;20367;-86
2022/10/27 07:36:01;;;;;;;;;;;;;;;21.49;44.45;102092.97;5082076;28;19932;-85
2022/10/27 07:38:27;;;;;;;;;;;;;;;21.42;44.31;102090.22;5085726;28;19924;-85
2022/10/27 07:40:52;;;;;;;;;;;;;;;21.19;45.33;102095.88;5077960;28;19929;-84
2022/10/27 07:43:19;;;;;;;;;;;;;;;21.36;44.69;102101.91;5083217;28;19936;-84
2022/10/27 07:45:46;;;;;;;;;;;;;;;21.34;44.49;102095.78;5081788;28;20336;-87
2022/10/27 07:48:12;;;;;;;;;;;;;;;21.33;44.78;102104.19;5063453;28;19929;-84
2022/10/27 07:50:38;;;;;;;;;;;;;;;21.67;44.09;102108.91;5074718;28;19928;-86
2022/10/27 07:53:04;;;;;;;;;;;;;;;23.14;41.73;102097.56;5077488;28;19916;-86
2022/10/27 07:55:31;;;;;;;;;;;;;;;24.33;39.17;102101.19;5079756;28;20457;-84
2022/10/27 07:58:03;;;;;;;;;;;;;;;25.98;35.67;102091.97;5078227;28;19929;-82
2022/10/27 08:00:29;;;;;;;;;;;;;;;27.98;32.45;102095.31;5037544;28;19925;-84
2022/10/27 08:02:54;;;;;;;;;;;;;;;29.71;29.88;102086.88;5050210;28;19927;-85
2022/10/27 08:05:20;;;;;;;;;;;;;;;31.11;27.68;102086.31;5039155;28;20011;-84
2022/10/27 08:07:46;;;;;;;;;;;;;;;32.13;26.00;102086.19;5063955;28;20011;-84
2022/10/27 08:10:13;;;;;;;;;;;;;;;32.84;25.09;102093.91;5056417;28;19955;-84
2022/10/27 08:12:43;;;;;;;;;;;;;;;33.84;23.97;102087.72;5054093;28;20370;-84
2022/10/27 08:15:09;;;;;;;;;;;;;;;33.60;22.17;102090.31;5022456;28;19921;-84
2022/10/27 08:17:34;;;;;;;;;;;;;;;33.04;23.23;102095.03;5048697;28;19984;-84
2022/10/27 08:20:01;;;;;;;;;;;;;;;31.48;24.75;102091.91;5071125;28;19952;-82
2022/10/27 08:22:27;;;;;;;;;;;;;;;30.36;26.48;102094.41;5056350;28;19950;-86
2022/10/27 08:24:52;;;;;;;;;;;;;;;30.77;26.34;102096.81;5044209;28;20327;-85
2022/10/27 08:27:20;;;;;;;;;;;;;;;31.42;25.42;102098.56;5055723;28;19920;-88
2022/10/27 08:29:45;;;;;;;;;;;;;;;31.35;25.34;102092.31;5036238;28;19936;-87
2022/10/27 08:32:10;;;;;;;;;;;;;;;30.49;26.66;102096.78;5059123;28;20273;-89
2022/10/27 08:34:35;;;;;;;;;;;;;;;29.71;27.62;102096.03;5044724;28;20043;-87
2022/10/27 08:37:01;;;;;;;;;;;;;;;29.88;27.30;102090.47;5069398;28;19987;-87
2022/10/27 08:39:26;;;;;;;;;;;;;;;31.41;25.27;102090.47;5047440;28;19916;-87
2022/10/27 08:41:56;;;;;;;;;;;;;;;30.22;26.69;102095.88;5044182;28;19990;-87
2022/10/27 08:44:44;;;;;;;;;;;;;;;30.25;26.96;102098.13;5052552;28;20395;-87
2022/10/27 08:47:12;;;;;;;;;;;;;;;32.19;24.58;102099.00;5056754;28;19927;-87
2022/10/27 08:49:50;;;;;;;;;;;;;;;33.90;22.52;102098.84;5055059;28;20380;-87
2022/10/27 08:52:15;;;;;;;;;;;;;;;35.62;21.15;102097.22;5046775;28;19920;-86
2022/10/27 08:54:43;;;;;;;;;;;;;;;36.08;20.37;102102.25;5065490;28;19919;-87
2022/10/27 08:57:10;;;;;;;;;;;;;;;35.39;20.47;102096.84;5053901;28;19992;-87
2022/10/27 08:59:36;;;;;;;;;;;;;;;36.79;19.54;102097.69;5071907;28;19934;-87
2022/10/27 09:02:12;;;;;;;;;;;;;;;36.66;19.39;102096.47;5077044;28;19921;-87
2022/10/27 09:04:46;;;;;;;;;;;;;;;36.30;19.82;102096.13;5087106;28;19916;-86
2022/10/27 09:07:35;;;;;;;;;;;;;;;36.24;19.72;102095.34;5088039;28;20006;-88
2022/10/27 09:10:01;;;;;;;;;;;;;;;37.87;18.83;102085.38;5077477;28;19955;-86
2022/10/27 09:12:45;;;;;;;;;;;;;;;38.74;17.68;102089.09;5077152;28;20325;-88
2022/10/27 09:15:46;;;;;;;;;;;;;;;39.20;17.16;102082.31;5080029;28;19916;-88
2022/10/27 09:18:18;;;;;;;;;;;;;;;38.82;17.34;102079.91;5011315;28;19921;-86
2022/10/27 09:20:44;;;;;;;;;;;;;;;39.59;16.79;102083.53;4999374;28;19948;-87
2022/10/27 09:23:11;;;;;;;;;;;;;;;39.05;17.27;102088.34;5000012;28;19917;-88
2022/10/27 09:25:36;;;;;;;;;;;;;;;38.61;17.60;102089.97;5013439;28;19994;-86
2022/10/27 09:28:03;;;;;;;;;;;;;;;39.08;17.43;102089.69;5078498;28;19928;-83
2022/10/27 09:30:33;;;;;;;;;;;;;;;38.33;17.85;102084.41;5076906;28;19943;-84
2022/10/27 09:32:59;;;;;;;;;;;;;;;38.11;18.31;102087.97;5075990;28;19924;-86
2022/10/27 09:35:25;;;;;;;;;;;;;;;37.99;18.97;102090.47;5088723;28;19950;-89
2022/10/27 09:37:52;;;;;;;;;;;;;;;38.74;18.31;102091.06;5071855;28;19924;-90
2022/10/27 09:40:18;;;;;;;;;;;;;;;38.89;17.99;102084.22;5086505;28;19921;-90
2022/10/27 09:42:44;;;;;;;;;;;;;;;39.83;17.30;102080.34;5092405;28;19965;-88
2022/10/27 09:45:19;;;;;;;;;;;;;;;38.33;18.88;102077.94;5055551;28;19921;-87
2022/10/27 09:47:49;;;;;;;;;;;;;;;37.78;19.78;102081.63;5071454;28;20308;-85
2022/10/27 09:50:16;;;;;;;;;;;;;;;38.67;19.03;102071.84;5088351;28;19931;-86
2022/10/27 09:52:42;;;;;;;;;;;;;;;37.51;20.19;102074.84;5087949;28;19916;-86
2022/10/27 09:55:07;;;;;;;;;;;;;;;37.33;20.06;102079.41;5092223;28;19916;-88
2022/10/27 09:57:34;;;;;;;;;;;;;;;38.71;18.95;102078.50;5080373;28;19935;-85
2022/10/27 10:00:02;;;;;;;;;;;;;;;39.50;18.74;102074.25;5062567;28;19920;-87
2022/10/27 10:02:29;;;;;;;;;;;;;;;37.42;20.49;102076.72;5062153;28;19920;-85
2022/10/27 10:04:54;;;;;;;;;;;;;;;36.55;21.28;102073.38;5039084;28;19997;-92
2022/10/27 10:07:38;;;;;;;;;;;;;;;36.03;22.11;102077.13;5045324;28;20024;-88
2022/10/27 10:10:15;;;;;;;;;;;;;;;35.56;22.92;102068.44;5070699;28;19920;-88
2022/10/27 10:12:41;;;;;;;;;;;;;;;34.70;23.86;102070.03;5042915;28;19924;-88
2022/10/27 10:15:09;;;;;;;;;;;;;;;36.28;22.52;102071.22;5037279;28;19931;-84
2022/10/27 10:17:34;;;;;;;;;;;;;;;34.88;24.45;102067.38;5062808;28;20325;-90
2022/10/27 10:20:06;;;;;;;;;;;;;;;35.59;23.70;102076.25;5045465;28;20030;-92
2022/10/27 10:22:32;;;;;;;;;;;;;;;34.84;24.81;102073.81;5051843;28;20019;-89
2022/10/27 10:24:58;;;;;;;;;;;;;;;34.23;25.78;102072.22;5034490;28;20336;-90
2022/10/27 10:27:26;;;;;;;;;;;;;;;33.85;26.13;102060.66;5037966;28;20465;-89
2022/10/27 10:29:51;;;;;;;;;;;;;;;34.73;25.19;102069.47;5043193;28;19921;-88
2022/10/27 10:32:26;;;;;;;;;;;;;;;32.62;27.48;102059.94;5020640;28;19994;-91
2022/10/27 10:34:53;;;;;;;;;;;;;;;31.63;29.46;102065.31;5036666;28;20312;-90
2022/10/27 10:37:38;;;;;;;;;;;;;;;33.01;27.30;102068.56;5063747;28;19927;-89
2022/10/27 10:40:10;;;;;;;;;;;;;;;33.49;26.83;102052.38;5066735;28;19984;-90
2022/10/27 10:42:36;;;;;;;;;;;;;;;32.48;28.40;102063.19;5034601;28;20308;-88
2022/10/27 10:45:32;;;;;;;;;;;;;;;32.27;28.79;102064.25;5063309;28;19922;-88
2022/10/27 10:47:58;;;;;;;;;;;;;;;32.16;29.50;102060.59;5055173;28;19921;-89
2022/10/27 10:50:25;;;;;;;;;;;;;;;33.20;27.29;102049.34;5037188;28;19955;-89
2022/10/27 10:52:52;;;;;;;;;;;;;;;33.79;26.59;102054.28;5063072;28;19967;-89
2022/10/27 10:55:19;;;;;;;;;;;;;;;34.22;25.83;102054.66;5034691;28;19959;-87
2022/10/27 10:57:47;;;;;;;;;;;;;;;34.36;25.92;102059.63;5048441;28;19924;-89
2022/10/27 11:00:13;;;;;;;;;;;;;;;34.36;25.94;102049.28;5036334;28;19932;-88
2022/10/27 11:02:40;;;;;;;;;;;;;;;33.35;27.37;102049.34;5046400;28;20012;-87
2022/10/27 11:05:11;;;;;;;;;;;;;;;34.48;25.91;102052.53;5065697;28;20022;-88
2022/10/27 11:07:36;;;;;;;;;;;;;;;33.92;26.79;102050.03;5043473;28;19935;-88
2022/10/27 11:10:13;;;;;;;;;;;;;;;33.78;26.98;102038.66;5061299;28;20019;-87
2022/10/27 11:12:42;;;;;;;;;;;;;;;33.83;27.42;102035.00;5059348;28;19921;-88
2022/10/27 11:15:20;;;;;;;;;;;;;;;34.38;26.40;102046.22;5060599;28;19916;-87
2022/10/27 11:17:46;;;;;;;;;;;;;;;31.60;30.20;102038.91;5063963;28;19924;-86
2022/10/27 11:20:33;;;;;;;;;;;;;;;30.59;32.19;102048.06;5033998;28;19924;-86
2022/10/27 11:22:59;;;;;;;;;;;;;;;29.37;34.57;102037.06;5045875;28;19924;-87
2022/10/27 11:25:33;;;;;;;;;;;;;;;29.34;34.47;102035.63;5034741;28;20015;-87
2022/10/27 11:28:18;;;;;;;;;;;;;;;29.30;34.93;102028.09;5044021;28;19917;-87
2022/10/27 11:31:06;;;;;;;;;;;;;;;29.79;34.19;102031.03;5060861;28;19973;-87
2022/10/27 11:34:00;;;;;;;;;;;;;;;29.79;34.38;102033.78;4951662;28;20440;-87
2022/10/27 11:36:29;;;;;;;;;;;;;;;28.20;37.25;102042.13;5042359;28;19921;-86
2022/10/27 11:38:54;;;;;;;;;;;;;;;28.86;36.43;102030.66;5050770;28;20372;-87
2022/10/27 11:41:36;;;;;;;;;;;;;;;29.64;34.80;102035.22;5056676;28;19920;-87
2022/10/27 11:44:20;;;;;;;;;;;;;;;29.43;35.01;102033.25;5030850;28;19985;-87
2022/10/27 11:46:52;;;;;;;;;;;;;;;28.17;37.14;102043.47;5063912;28;19981;-86
2022/10/27 11:49:29;;;;;;;;;;;;;;;25.71;41.81;102044.56;5058611;28;19920;-86
2022/10/27 11:52:13;;;;;;;;;;;;;;;25.62;42.83;102046.78;5064305;28;20338;-86
2022/10/27 11:54:39;;;;;;;;;;;;;;;24.51;45.03;102042.75;5053902;28;20419;-86
2022/10/27 11:57:04;;;;;;;;;;;;;;;24.85;44.32;102043.41;5054557;28;20405;-87
2022/10/27 11:59:42;;;;;;;;;;;;;;;23.91;45.93;102044.94;5069410;28;19935;-86
2022/10/27 12:02:11;;;;;;;;;;;;;;;23.92;46.51;102041.94;5037663;28;20304;-86
2022/10/27 12:04:42;;;;;;;;;;;;;;;23.47;47.80;102046.47;5055050;28;19936;-86
2022/10/27 12:07:26;;;;;;;;;;;;;;;23.10;48.41;102046.91;5072672;28;19993;-86
2022/10/27 12:10:06;;;;;;;;;;;;;;;22.64;49.82;102044.06;5063404;28;19943;-86
2022/10/27 12:12:38;;;;;;;;;;;;;;;22.18;51.02;102055.72;5066557;28;19931;-87
2022/10/27 12:15:07;;;;;;;;;;;;;;;21.58;52.94;102047.16;5047893;28;19929;-87
2022/10/27 12:17:32;;;;;;;;;;;;;;;21.78;52.62;102052.78;5058309;28;19920;-89
2022/10/27 12:19:57;;;;;;;;;;;;;;;21.67;53.21;102054.19;5059031;28;19917;-87
2022/10/27 12:22:32;;;;;;;;;;;;;;;21.95;52.72;102059.59;5030529;28;19927;-87
2022/10/27 12:25:07;;;;;;;;;;;;;;;21.56;53.78;102065.66;5026950;28;20034;-86
2022/10/27 12:27:39;;;;;;;;;;;;;;;21.37;54.92;102068.03;5059861;28;19921;-86
2022/10/27 12:30:12;;;;;;;;;;;;;;;20.87;57.05;102061.72;5034032;28;19951;-88
2022/10/27 12:32:39;;;;;;;;;;;;;;;20.79;57.48;102065.44;5038075;28;19991;-86
2022/10/27 12:35:10;;;;;;;;;;;;;;;20.79;57.69;102053.63;5048436;28;19916;-86
2022/10/27 12:37:55;;;;;;;;;;;;;;;20.56;58.47;102065.59;5054575;28;19916;-86
2022/10/27 12:40:27;;;;;;;;;;;;;;;20.43;58.61;102066.25;5056196;28;20391;-84